Time;durP1;ratioP1;P1;durP2;ratioP2;P2;SDS_P1;SDS_P2;PMS_P1;PMS_P2;Temp;Humidity;BMP_temperature;BMP_pressure;BME280_temperature;BME280_humidity;BME280_pressure;Samples;Min_cycle;Max_cycle;Signal;HPM_P1;HPM_P2
2024/01/21 00:01:13;;;;;;;13.00;5.70;;;;;;;-8.88;100.00;98394.09;5037498;28;20551;-64
2024/01/21 00:03:41;;;;;;;12.15;6.03;;;;;;;-8.85;100.00;98388.63;5031793;28;20045;-63
2024/01/21 00:06:08;;;;;;;10.88;6.45;;;;;;;-8.75;100.00;98387.06;5033670;28;20026;-62
2024/01/21 00:08:34;;;;;;;14.45;6.85;;;;;;;-8.70;100.00;98392.00;5036971;28;20045;-63
2024/01/21 00:11:01;;;;;;;10.05;4.68;;;;;;;-8.69;100.00;98390.22;5044077;28;20413;-63
2024/01/21 00:13:28;;;;;;;13.95;5.85;;;;;;;-8.76;100.00;98389.81;5033986;28;20036;-63
2024/01/21 00:15:54;;;;;;;10.82;6.03;;;;;;;-8.72;100.00;98395.66;5032416;28;20083;-63
2024/01/21 00:18:21;;;;;;;16.70;7.32;;;;;;;-8.72;100.00;98382.53;5037716;28;20124;-63
2024/01/21 00:20:48;;;;;;;11.07;7.05;;;;;;;-8.71;100.00;98376.38;5036415;28;20107;-60
2024/01/21 00:23:14;;;;;;;11.82;5.55;;;;;;;-8.70;100.00;98376.25;5042002;28;20650;-62
2024/01/21 00:25:41;;;;;;;11.73;6.85;;;;;;;-8.79;100.00;98369.84;5032326;28;20045;-62
2024/01/21 00:28:07;;;;;;;12.98;6.32;;;;;;;-8.70;100.00;98364.91;5032736;28;20042;-63
2024/01/21 00:30:34;;;;;;;12.60;6.25;;;;;;;-8.80;100.00;98365.56;5040166;28;20505;-62
2024/01/21 00:33:01;;;;;;;11.50;6.30;;;;;;;-8.81;100.00;98370.91;5028351;28;20041;-62
2024/01/21 00:35:27;;;;;;;17.08;6.78;;;;;;;-8.81;100.00;98366.47;5047986;28;20416;-63
2024/01/21 00:37:54;;;;;;;11.57;4.53;;;;;;;-8.86;100.00;98365.13;5036250;28;20047;-63
2024/01/21 00:40:20;;;;;;;10.75;5.68;;;;;;;-8.90;100.00;98364.47;5036402;28;20051;-63
2024/01/21 00:42:47;;;;;;;11.45;5.63;;;;;;;-8.96;100.00;98376.22;5035135;28;20036;-63
2024/01/21 00:45:14;;;;;;;11.52;5.20;;;;;;;-8.93;100.00;98372.53;5032431;28;20115;-63
2024/01/21 00:47:40;;;;;;;10.80;6.00;;;;;;;-8.93;100.00;98372.53;5029092;28;20042;-61
2024/01/21 00:50:08;;;;;;;12.48;6.40;;;;;;;-8.96;100.00;98364.91;5041640;28;20055;-63
2024/01/21 00:52:35;;;;;;;12.82;5.72;;;;;;;-8.96;100.00;98362.28;5035830;28;20037;-62
2024/01/21 00:55:01;;;;;;;12.10;5.45;;;;;;;-8.91;100.00;98365.44;5034432;28;20087;-63
2024/01/21 00:57:28;;;;;;;12.10;6.05;;;;;;;-8.89;100.00;98366.16;5025976;28;20052;-63
2024/01/21 00:59:54;;;;;;;11.10;6.85;;;;;;;-8.92;100.00;98367.19;5034725;28;20064;-62
2024/01/21 01:02:21;;;;;;;12.30;5.60;;;;;;;-8.92;100.00;98361.13;5031564;28;20045;-62
2024/01/21 01:04:48;;;;;;;13.55;7.47;;;;;;;-8.84;100.00;98350.09;5037660;28;20041;-63
2024/01/21 01:07:15;;;;;;;10.50;6.35;;;;;;;-8.66;100.00;98353.25;5033217;28;20048;-62
2024/01/21 01:09:42;;;;;;;12.43;6.80;;;;;;;-8.63;100.00;98345.16;5034605;28;20072;-63
2024/01/21 01:12:09;;;;;;;13.38;6.20;;;;;;;-8.74;100.00;98343.25;5026593;28;20059;-63
2024/01/21 01:14:39;;;;;;;11.35;6.30;;;;;;;-8.80;100.00;98347.16;5029176;28;20037;-63
2024/01/21 01:17:06;;;;;;;15.20;7.22;;;;;;;-8.80;100.00;98348.94;5034716;28;20064;-63
2024/01/21 01:19:33;;;;;;;14.43;6.47;;;;;;;-8.93;100.00;98347.16;5028289;28;20095;-63
2024/01/21 01:22:01;;;;;;;10.32;5.35;;;;;;;-9.01;100.00;98344.19;5035393;28;20533;-63
2024/01/21 01:24:27;;;;;;;8.15;5.15;;;;;;;-8.84;100.00;98336.97;5035737;28;20094;-63
2024/01/21 01:26:54;;;;;;;12.05;6.57;;;;;;;-8.58;100.00;98340.44;5032448;28;20132;-63
2024/01/21 01:29:21;;;;;;;16.10;6.13;;;;;;;-8.73;100.00;98342.34;5031430;28;20055;-63
2024/01/21 01:31:47;;;;;;;14.07;5.82;;;;;;;-8.79;100.00;98340.13;5046048;28;20493;-63
2024/01/21 01:34:14;;;;;;;11.57;5.80;;;;;;;-8.86;100.00;98336.25;5034451;28;20086;-63
2024/01/21 01:36:40;;;;;;;16.00;7.30;;;;;;;-8.89;100.00;98327.63;5035971;28;20083;-64
2024/01/21 01:39:07;;;;;;;11.18;6.05;;;;;;;-8.87;100.00;98322.28;5031462;28;20043;-63
2024/01/21 01:41:34;;;;;;;11.48;5.68;;;;;;;-8.62;100.00;98325.84;5029981;28;20045;-63
2024/01/21 01:44:00;;;;;;;9.18;4.97;;;;;;;-8.70;100.00;98317.66;5036717;28;20065;-62
2024/01/21 01:46:27;;;;;;;13.95;6.10;;;;;;;-8.54;100.00;98309.53;5038524;28;20041;-63
2024/01/21 01:48:54;;;;;;;11.10;5.88;;;;;;;-8.65;100.00;98305.03;5043964;28;20060;-62
2024/01/21 01:51:21;;;;;;;19.70;7.22;;;;;;;-8.39;100.00;98315.47;5044036;28;20051;-60
2024/01/21 01:53:48;;;;;;;15.57;5.15;;;;;;;-8.41;100.00;98310.31;5040111;28;20044;-63
2024/01/21 01:56:15;;;;;;;12.52;5.65;;;;;;;-8.47;100.00;98308.16;5029455;28;20037;-63
2024/01/21 01:58:43;;;;;;;8.90;4.43;;;;;;;-8.66;100.00;98300.75;5034643;28;20329;-64
2024/01/21 02:01:10;;;;;;;12.05;5.82;;;;;;;-8.55;100.00;98305.25;5041860;28;20036;-62
2024/01/21 02:03:37;;;;;;;9.20;5.20;;;;;;;-8.68;100.00;98292.97;5032384;28;20045;-63
2024/01/21 02:06:04;;;;;;;8.95;4.93;;;;;;;-8.65;100.00;98294.53;5036363;28;20385;-62
2024/01/21 02:08:30;;;;;;;12.20;5.80;;;;;;;-8.78;100.00;98295.38;5034427;28;20044;-63
2024/01/21 02:10:57;;;;;;;11.38;5.97;;;;;;;-8.67;100.00;98291.19;5032949;28;20106;-62
2024/01/21 02:13:23;;;;;;;11.25;6.00;;;;;;;-8.51;100.00;98289.13;5036091;28;20051;-63
2024/01/21 02:15:50;;;;;;;9.38;5.22;;;;;;;-8.72;100.00;98285.41;5032084;28;20037;-62
2024/01/21 02:18:17;;;;;;;10.25;6.32;;;;;;;-8.55;100.00;98287.69;5027765;28;20050;-63
2024/01/21 02:20:43;;;;;;;18.70;6.95;;;;;;;-8.47;100.00;98287.13;5036361;28;20041;-64
2024/01/21 02:23:10;;;;;;;9.85;5.97;;;;;;;-8.52;100.00;98284.81;5028512;28;20526;-61
2024/01/21 02:25:37;;;;;;;11.68;5.55;;;;;;;-8.48;100.00;98288.06;5037173;28;20404;-64
2024/01/21 02:28:04;;;;;;;11.50;6.18;;;;;;;-8.56;100.00;98285.19;5029745;28;20330;-62
2024/01/21 02:30:30;;;;;;;12.35;5.25;;;;;;;-8.69;100.00;98282.56;5033845;28;20087;-62
2024/01/21 02:32:57;;;;;;;10.15;4.97;;;;;;;-8.46;100.00;98277.44;5037584;28;20389;-63
2024/01/21 02:35:23;;;;;;;9.15;5.03;;;;;;;-8.46;100.00;98275.66;5029201;28;20060;-63
2024/01/21 02:37:50;;;;;;;9.02;3.83;;;;;;;-8.56;100.00;98270.25;5034988;28;20129;-62
2024/01/21 02:40:16;;;;;;;14.57;6.00;;;;;;;-8.43;100.00;98266.72;5038574;28;20477;-63
2024/01/21 02:42:43;;;;;;;8.43;4.25;;;;;;;-8.41;100.00;98267.47;5036610;28;20037;-63
2024/01/21 02:45:10;;;;;;;11.50;6.20;;;;;;;-8.34;100.00;98273.13;5033239;28;20098;-63
2024/01/21 02:47:37;;;;;;;11.20;4.97;;;;;;;-8.40;100.00;98271.78;5033858;28;20159;-62
2024/01/21 02:50:04;;;;;;;8.68;5.22;;;;;;;-8.27;100.00;98277.81;5048552;28;20128;-64
2024/01/21 02:52:30;;;;;;;10.57;4.78;;;;;;;-8.43;100.00;98277.25;5034018;28;20044;-63
2024/01/21 02:54:56;;;;;;;8.50;5.00;;;;;;;-8.30;100.00;98279.84;5032093;28;20033;-62
2024/01/21 02:57:23;;;;;;;13.73;4.75;;;;;;;-8.03;100.00;98278.81;5036184;28;20053;-63
2024/01/21 02:59:50;;;;;;;14.40;4.75;;;;;;;-8.12;100.00;98273.25;5038617;28;20059;-62
2024/01/21 03:02:17;;;;;;;11.43;5.82;;;;;;;-8.26;100.00;98270.78;5044869;28;20558;-62
2024/01/21 03:04:43;;;;;;;11.75;4.93;;;;;;;-8.25;100.00;98280.34;5039076;28;20042;-64
2024/01/21 03:07:10;;;;;;;12.65;5.10;;;;;;;-8.25;100.00;98275.91;5040528;28;20048;-62
2024/01/21 03:09:36;;;;;;;10.32;5.00;;;;;;;-8.17;100.00;98279.78;5040253;28;20049;-62
2024/01/21 03:12:03;;;;;;;8.65;4.72;;;;;;;-8.18;100.00;98270.22;5038803;28;20296;-63
2024/01/21 03:14:30;;;;;;;12.02;4.63;;;;;;;-8.10;100.00;98268.72;5033795;28;20189;-63
2024/01/21 03:16:57;;;;;;;11.63;4.80;;;;;;;-8.13;100.00;98262.84;5037492;28;20104;-63
2024/01/21 03:19:23;;;;;;;10.70;5.13;;;;;;;-8.02;100.00;98265.56;5043342;28;20997;-62
2024/01/21 03:21:50;;;;;;;11.38;4.95;;;;;;;-7.96;100.00;98262.47;5044389;28;20592;-62
2024/01/21 03:24:17;;;;;;;8.80;4.57;;;;;;;-7.98;100.00;98260.91;5045752;28;20057;-62
2024/01/21 03:26:43;;;;;;;10.73;4.55;;;;;;;-7.99;100.00;98265.34;5038050;28;20041;-63
2024/01/21 03:29:10;;;;;;;15.10;6.18;;;;;;;-7.92;100.00;98262.25;5038226;28;20440;-63
2024/01/21 03:31:36;;;;;;;15.65;6.38;;;;;;;-7.86;100.00;98251.25;5035337;28;20120;-63
2024/01/21 03:34:03;;;;;;;11.45;5.65;;;;;;;-7.85;100.00;98256.41;5048481;28;20049;-62
2024/01/21 03:36:30;;;;;;;12.43;5.78;;;;;;;-7.85;100.00;98251.16;5046205;28;20313;-64
2024/01/21 03:38:57;;;;;;;13.98;5.55;;;;;;;-7.87;100.00;98249.59;5047981;28;20045;-63
2024/01/21 03:41:23;;;;;;;15.75;7.20;;;;;;;-7.81;100.00;98246.53;5035982;28;20315;-62
2024/01/21 03:43:50;;;;;;;12.20;5.72;;;;;;;-7.84;100.00;98244.97;5041099;28;20068;-64
2024/01/21 03:46:17;;;;;;;16.33;6.35;;;;;;;-7.91;100.00;98240.25;5044491;28;20048;-63
2024/01/21 03:48:44;;;;;;;13.52;5.95;;;;;;;-7.85;100.00;98237.19;5040590;28;20048;-64
2024/01/21 03:51:11;;;;;;;16.13;7.10;;;;;;;-7.88;100.00;98237.41;5033209;28;20036;-64
2024/01/21 03:53:39;;;;;;;10.70;6.10;;;;;;;-7.87;100.00;98239.94;5041484;28;20119;-62
2024/01/21 03:56:06;;;;;;;10.55;5.00;;;;;;;-7.86;100.00;98236.34;5039409;28;20107;-63
2024/01/21 03:58:33;;;;;;;24.00;6.45;;;;;;;-7.84;100.00;98231.81;5045560;28;20059;-63
2024/01/21 04:01:03;;;;;;;12.05;5.47;;;;;;;-7.78;100.00;98229.69;5038143;28;20037;-63
2024/01/21 04:03:29;;;;;;;17.38;6.63;;;;;;;-7.76;100.00;98227.75;5038459;28;20488;-63
2024/01/21 04:05:56;;;;;;;14.43;5.93;;;;;;;-7.72;100.00;98214.28;5047651;28;20284;-64
2024/01/21 04:08:23;;;;;;;11.38;4.88;;;;;;;-7.64;100.00;98213.69;5047153;28;20115;-63
2024/01/21 04:10:50;;;;;;;11.05;5.07;;;;;;;-7.61;100.00;98207.38;5035562;28;20041;-62
2024/01/21 04:13:18;;;;;;;15.40;6.78;;;;;;;-7.55;100.00;98217.44;5031908;28;20496;-62
2024/01/21 04:15:45;;;;;;;9.77;5.20;;;;;;;-7.53;100.00;98212.88;5035212;28;20077;-64
2024/01/21 04:18:11;;;;;;;14.23;6.35;;;;;;;-7.47;100.00;98216.84;5044027;28;20059;-63
2024/01/21 04:20:38;;;;;;;10.52;5.82;;;;;;;-7.40;100.00;98209.34;5044395;28;20037;-61
2024/01/21 04:23:05;;;;;;;9.38;5.03;;;;;;;-7.23;100.00;98210.69;5039688;28;20124;-63
2024/01/21 04:25:31;;;;;;;10.27;5.00;;;;;;;-7.18;100.00;98208.53;5038348;28;20521;-63
2024/01/21 04:27:58;;;;;;;8.68;4.60;;;;;;;-7.13;100.00;98192.38;5033044;28;20048;-62
2024/01/21 04:30:24;;;;;;;11.15;5.15;;;;;;;-7.15;100.00;98192.47;5043228;28;20045;-62
2024/01/21 04:32:51;;;;;;;6.80;4.00;;;;;;;-7.12;100.00;98191.44;5044879;28;20048;-63
2024/01/21 04:35:17;;;;;;;9.05;4.07;;;;;;;-7.05;100.00;98187.34;5040987;28;20041;-63
2024/01/21 04:37:44;;;;;;;8.57;5.15;;;;;;;-7.11;100.00;98185.22;5030960;28;20041;-62
2024/01/21 04:40:11;;;;;;;8.15;4.10;;;;;;;-7.11;100.00;98179.94;5046584;28;20046;-63
2024/01/21 04:42:38;;;;;;;7.85;4.22;;;;;;;-7.18;100.00;98188.31;5034259;28;20044;-63
2024/01/21 04:45:05;;;;;;;8.93;5.03;;;;;;;-7.31;100.00;98196.31;5035008;28;20053;-62
2024/01/21 04:47:33;;;;;;;10.07;5.00;;;;;;;-7.29;100.00;98203.25;5039899;28;20037;-63
2024/01/21 04:50:01;;;;;;;8.95;4.63;;;;;;;-7.29;100.00;98204.09;5038575;28;20102;-63
2024/01/21 04:52:28;;;;;;;8.18;4.38;;;;;;;-7.40;100.00;98197.03;5045645;28;20052;-61
2024/01/21 04:54:54;;;;;;;7.28;3.80;;;;;;;-7.35;100.00;98200.13;5038541;28;20048;-63
2024/01/21 04:57:21;;;;;;;8.23;3.60;;;;;;;-7.35;100.00;98199.28;5039110;28;20037;-63
2024/01/21 04:59:48;;;;;;;8.10;3.53;;;;;;;-7.27;100.00;98212.69;5039132;28;20033;-64
2024/01/21 05:02:14;;;;;;;8.70;4.45;;;;;;;-7.32;100.00;98199.91;5045542;28;20172;-62
2024/01/21 05:04:41;;;;;;;9.98;4.55;;;;;;;-7.52;100.00;98206.66;5033400;28;20076;-63
2024/01/21 05:07:07;;;;;;;7.07;3.33;;;;;;;-7.50;100.00;98203.94;5044653;28;20040;-64
2024/01/21 05:09:34;;;;;;;6.85;3.50;;;;;;;-7.48;100.00;98218.63;5037351;28;20071;-63
2024/01/21 05:12:00;;;;;;;8.07;3.97;;;;;;;-7.44;100.00;98235.06;5038256;28;20531;-63
2024/01/21 05:14:27;;;;;;;8.25;3.65;;;;;;;-7.50;100.00;98236.34;5034253;28;20045;-61
2024/01/21 05:16:53;;;;;;;8.38;3.63;;;;;;;-7.45;100.00;98247.34;5041707;28;20115;-62
2024/01/21 05:19:20;;;;;;;5.70;3.40;;;;;;;-7.24;100.00;98257.22;5033201;28;20443;-62
2024/01/21 05:21:46;;;;;;;9.75;4.32;;;;;;;-7.37;100.00;98256.47;5033843;28;20492;-62
2024/01/21 05:24:13;;;;;;;9.30;4.00;;;;;;;-7.47;100.00;98251.91;5035585;28;20151;-62
2024/01/21 05:26:44;;;;;;;6.10;3.58;;;;;;;-7.53;100.00;98259.44;5036265;28;20036;-64
2024/01/21 05:29:11;;;;;;;7.93;3.75;;;;;;;-7.59;100.00;98252.81;5034387;28;20075;-63
2024/01/21 05:31:38;;;;;;;5.15;2.67;;;;;;;-7.50;100.00;98275.81;5034878;28;20036;-63
2024/01/21 05:34:05;;;;;;;6.10;3.33;;;;;;;-7.34;100.00;98267.59;5033328;28;20416;-61
2024/01/21 05:36:31;;;;;;;7.68;4.05;;;;;;;-7.44;100.00;98266.63;5034117;28;20132;-62
2024/01/21 05:38:58;;;;;;;7.60;3.53;;;;;;;-7.53;100.00;98276.03;5033125;28;20072;-63
2024/01/21 05:41:28;;;;;;;8.85;2.65;;;;;;;-7.55;100.00;98277.09;5035753;28;20041;-64
2024/01/21 05:43:55;;;;;;;9.80;3.30;;;;;;;-7.45;100.00;98275.44;5034646;28;20048;-63
2024/01/21 05:46:21;;;;;;;6.18;2.95;;;;;;;-7.35;100.00;98278.22;5029757;28;20570;-63
2024/01/21 05:48:48;;;;;;;7.85;3.50;;;;;;;-7.42;100.00;98277.84;5037830;28;20045;-63
2024/01/21 05:51:15;;;;;;;5.40;2.22;;;;;;;-7.34;100.00;98275.50;5030457;28;20056;-63
2024/01/21 05:53:42;;;;;;;6.68;3.38;;;;;;;-7.24;100.00;98282.69;5032142;28;20071;-63
2024/01/21 05:56:08;;;;;;;7.78;3.80;;;;;;;-7.11;100.00;98287.88;5036671;28;20305;-63
2024/01/21 05:58:35;;;;;;;7.60;3.97;;;;;;;-7.14;100.00;98288.94;5031487;28;20041;-64
2024/01/21 06:01:02;;;;;;;6.50;3.35;;;;;;;-7.08;100.00;98292.91;5036267;28;20045;-64
2024/01/21 06:03:29;;;;;;;6.68;3.40;;;;;;;-6.99;100.00;98291.34;5034835;28;20046;-64
2024/01/21 06:05:56;;;;;;;6.80;2.67;;;;;;;-6.93;100.00;98283.00;5037377;28;20081;-65
2024/01/21 06:08:23;;;;;;;7.50;3.97;;;;;;;-6.98;100.00;98279.84;5035194;28;20045;-64
2024/01/21 06:10:49;;;;;;;5.45;3.28;;;;;;;-6.96;100.00;98283.22;5033985;28;20124;-63
2024/01/21 06:13:16;;;;;;;11.43;4.47;;;;;;;-7.00;100.00;98290.53;5042854;28;20041;-63
2024/01/21 06:15:43;;;;;;;8.68;4.93;;;;;;;-7.00;100.00;98287.91;5042032;28;20067;-62
2024/01/21 06:18:10;;;;;;;6.78;4.20;;;;;;;-6.95;100.00;98292.78;5036356;28;20041;-63
2024/01/21 06:20:36;;;;;;;5.15;2.80;;;;;;;-7.05;100.00;98282.97;5033859;28;20046;-62
2024/01/21 06:23:03;;;;;;;8.93;3.13;;;;;;;-7.10;100.00;98290.38;5040387;28;20045;-63
2024/01/21 06:25:30;;;;;;;6.43;2.90;;;;;;;-7.10;100.00;98284.28;5043920;28;20052;-63
2024/01/21 06:27:57;;;;;;;5.40;2.83;;;;;;;-7.11;100.00;98286.06;5042334;28;20047;-63
2024/01/21 06:30:23;;;;;;;6.95;3.38;;;;;;;-7.07;100.00;98271.72;5034216;28;20133;-63
2024/01/21 06:32:50;;;;;;;5.93;3.22;;;;;;;-7.01;100.00;98267.78;5042190;28;20440;-63
2024/01/21 06:35:28;;;;;;;7.55;3.83;;;;;;;-7.07;100.00;98257.72;5047359;28;20072;-63
2024/01/21 06:37:55;;;;;;;7.03;3.72;;;;;;;-6.98;100.00;98264.91;5042114;28;20479;-62
2024/01/21 06:40:21;;;;;;;7.00;3.42;;;;;;;-7.08;100.00;98264.78;5044397;28;20142;-64
2024/01/21 06:42:48;;;;;;;9.68;4.20;;;;;;;-7.20;100.00;98268.34;5039208;28;20444;-63
2024/01/21 06:45:15;;;;;;;7.25;3.08;;;;;;;-7.13;100.00;98281.88;5033973;28;20081;-62
2024/01/21 06:47:42;;;;;;;11.05;3.20;;;;;;;-7.47;100.00;98282.63;5040845;28;20033;-62
2024/01/21 06:50:10;;;;;;;4.80;2.58;;;;;;;-7.58;100.00;98281.66;5042400;28;20119;-62
2024/01/21 06:52:36;;;;;;;6.20;3.00;;;;;;;-7.62;100.00;98284.59;5049770;28;20053;-62
2024/01/21 06:55:03;;;;;;;6.35;2.83;;;;;;;-7.48;100.00;98279.16;5037957;28;20116;-63
2024/01/21 06:57:30;;;;;;;7.15;3.50;;;;;;;-7.48;100.00;98279.16;5039098;28;20047;-63
2024/01/21 06:59:56;;;;;;;5.80;3.00;;;;;;;-7.50;100.00;98283.69;5035352;28;20139;-63
2024/01/21 07:02:24;;;;;;;7.05;3.30;;;;;;;-7.65;100.00;98279.56;5043711;28;20048;-64
2024/01/21 07:04:50;;;;;;;6.45;3.00;;;;;;;-7.84;100.00;98276.53;5039263;28;20519;-63
2024/01/21 07:07:17;;;;;;;5.40;2.55;;;;;;;-7.86;100.00;98282.81;5031884;28;20128;-60
2024/01/21 07:09:43;;;;;;;5.78;3.03;;;;;;;-7.72;100.00;98277.41;5036376;28;20049;-60
2024/01/21 07:12:10;;;;;;;7.18;3.15;;;;;;;-7.54;100.00;98284.88;5030680;28;20571;-61
2024/01/21 07:14:36;;;;;;;8.52;4.07;;;;;;;-7.47;100.00;98294.00;5040618;28;20048;-65
2024/01/21 07:17:04;;;;;;;9.50;3.28;;;;;;;-7.55;100.00;98301.63;5036824;28;20102;-65
2024/01/21 07:19:30;;;;;;;7.30;2.70;;;;;;;-7.49;100.00;98301.16;5036491;28;20049;-65
2024/01/21 07:21:58;;;;;;;9.02;4.03;;;;;;;-7.40;100.00;98304.06;5032666;28;20131;-65
2024/01/21 07:24:25;;;;;;;7.35;3.20;;;;;;;-7.32;100.00;98312.22;5033213;28;20137;-65
2024/01/21 07:26:51;;;;;;;8.75;3.40;;;;;;;-7.22;100.00;98301.84;5039543;28;20048;-65
2024/01/21 07:29:18;;;;;;;8.20;3.90;;;;;;;-7.01;100.00;98299.38;5030361;28;20050;-65
2024/01/21 07:31:45;;;;;;;7.93;4.07;;;;;;;-6.86;100.00;98297.34;5037753;28;20037;-65
2024/01/21 07:34:12;;;;;;;8.95;4.82;;;;;;;-6.63;100.00;98299.19;5040132;28;20048;-65
2024/01/21 07:36:39;;;;;;;9.15;5.25;;;;;;;-6.45;100.00;98303.00;5039451;28;20136;-65
2024/01/21 07:39:06;;;;;;;10.95;5.57;;;;;;;-6.16;100.00;98301.69;5029100;28;20051;-65
2024/01/21 07:41:32;;;;;;;14.65;5.95;;;;;;;-6.02;100.00;98292.59;5035964;28;20165;-65
2024/01/21 07:43:59;;;;;;;16.38;6.47;;;;;;;-5.78;100.00;98296.88;5032224;28;20041;-65
2024/01/21 07:46:26;;;;;;;9.10;3.97;;;;;;;-5.46;100.00;98298.66;5035698;28;20072;-65
2024/01/21 07:48:52;;;;;;;13.73;6.35;;;;;;;-5.31;100.00;98293.91;5040689;28;20095;-66
2024/01/21 07:51:20;;;;;;;12.80;4.70;;;;;;;-5.16;100.00;98296.25;5038645;28;20055;-64
2024/01/21 07:53:47;;;;;;;9.23;4.47;;;;;;;-5.08;100.00;98293.81;5033367;28;20053;-65
2024/01/21 07:56:13;;;;;;;11.82;4.40;;;;;;;-4.98;100.00;98299.13;5030730;28;20044;-65
2024/01/21 07:58:40;;;;;;;9.85;4.80;;;;;;;-4.92;100.00;98301.28;5034176;28;20041;-64
2024/01/21 08:01:11;;;;;;;8.48;3.97;;;;;;;-4.71;100.00;98295.97;5034245;28;20053;-64
2024/01/21 08:03:38;;;;;;;5.97;3.67;;;;;;;-4.55;100.00;98299.09;5030604;28;20124;-64
2024/01/21 08:06:07;;;;;;;9.50;4.88;;;;;;;-4.50;100.00;98299.56;5032067;28;20041;-64
2024/01/21 08:08:34;;;;;;;5.93;3.78;;;;;;;-4.47;100.00;98299.25;5033011;28;20041;-64
2024/01/21 08:11:01;;;;;;;11.88;6.18;;;;;;;-4.53;100.00;98289.22;5037114;28;20038;-64
2024/01/21 08:13:28;;;;;;;12.40;6.00;;;;;;;-4.59;100.00;98287.94;5033440;28;20051;-63
2024/01/21 08:15:55;;;;;;;11.98;5.97;;;;;;;-4.60;100.00;98296.84;5029554;28;20099;-62
2024/01/21 08:18:22;;;;;;;16.65;5.18;;;;;;;-4.58;100.00;98306.31;5038418;28;20036;-63
2024/01/21 08:20:51;;;;;;;13.73;5.82;;;;;;;-4.60;100.00;98308.25;5041418;28;20051;-62
2024/01/21 08:23:18;;;;;;;9.15;5.35;;;;;;;-4.66;100.00;98306.16;5033592;28;20533;-63
2024/01/21 08:25:44;;;;;;;9.35;4.75;;;;;;;-4.57;100.00;98315.91;5038611;28;20129;-62
2024/01/21 08:28:11;;;;;;;7.80;5.03;;;;;;;-4.59;100.00;98307.31;5041399;28;20233;-63
2024/01/21 08:30:37;;;;;;;11.55;5.78;;;;;;;-4.49;100.00;98303.84;5037298;28;20045;-63
2024/01/21 08:33:04;;;;;;;10.65;5.45;;;;;;;-4.45;100.00;98298.16;5034724;28;20523;-63
2024/01/21 08:35:32;;;;;;;11.27;5.95;;;;;;;-4.41;100.00;98298.75;5036498;28;20064;-63
2024/01/21 08:38:00;;;;;;;9.85;5.50;;;;;;;-4.36;100.00;98301.81;5033127;28;20029;-63
2024/01/21 08:40:26;;;;;;;9.93;5.75;;;;;;;-4.31;100.00;98299.59;5039281;28;20038;-64
2024/01/21 08:42:53;;;;;;;10.27;5.75;;;;;;;-4.23;100.00;98304.25;5030492;28;20519;-63
2024/01/21 08:45:19;;;;;;;12.18;5.47;;;;;;;-4.17;100.00;98300.19;5038512;28;20342;-64
2024/01/21 08:47:46;;;;;;;8.25;4.55;;;;;;;-4.07;100.00;98306.38;5034947;28;20479;-63
2024/01/21 08:50:13;;;;;;;9.20;4.75;;;;;;;-3.98;100.00;98301.25;5040815;28;20551;-63
2024/01/21 08:52:39;;;;;;;9.63;4.68;;;;;;;-3.79;100.00;98303.91;5032652;28;20700;-64
2024/01/21 08:55:06;;;;;;;11.63;5.15;;;;;;;-3.69;100.00;98309.22;5034547;28;20405;-63
2024/01/21 08:57:33;;;;;;;9.50;5.15;;;;;;;-3.56;100.00;98314.28;5030434;28;20064;-64
2024/01/21 08:59:59;;;;;;;11.55;5.28;;;;;;;-3.42;100.00;98312.19;5028067;28;20041;-63
2024/01/21 09:02:26;;;;;;;6.95;4.13;;;;;;;-3.23;100.00;98318.44;5041958;28;20050;-63
2024/01/21 09:04:52;;;;;;;13.23;5.22;;;;;;;-3.13;100.00;98324.59;5039767;28;20048;-63
2024/01/21 09:07:19;;;;;;;12.23;4.88;;;;;;;-3.01;100.00;98315.53;5034600;28;20037;-64
2024/01/21 09:09:46;;;;;;;8.15;5.07;;;;;;;-2.94;100.00;98312.28;5033051;28;20115;-64
2024/01/21 09:12:14;;;;;;;11.80;5.05;;;;;;;-2.99;100.00;98315.34;5031059;28;20041;-64
2024/01/21 09:14:42;;;;;;;10.98;4.93;;;;;;;-2.88;100.00;98314.34;5040588;28;20048;-62
2024/01/21 09:17:09;;;;;;;8.35;4.75;;;;;;;-2.78;100.00;98301.94;5041180;28;20087;-63
2024/01/21 09:19:36;;;;;;;10.63;5.20;;;;;;;-2.67;100.00;98308.88;5030283;28;20041;-65
2024/01/21 09:22:03;;;;;;;7.50;4.53;;;;;;;-2.74;100.00;98313.06;5028634;28;20060;-62
2024/01/21 09:24:29;;;;;;;11.80;5.95;;;;;;;-2.84;100.00;98299.84;5032262;28;20123;-63
2024/01/21 09:26:56;;;;;;;11.43;5.13;;;;;;;-2.71;100.00;98309.31;5039653;28;20041;-64
2024/01/21 09:29:23;;;;;;;9.25;5.10;;;;;;;-2.52;100.00;98314.56;5036405;28;20441;-64
2024/01/21 09:31:55;;;;;;;11.38;6.22;;;;;;;-2.27;100.00;98314.03;5031519;28;20493;-63
2024/01/21 09:34:21;;;;;;;10.95;5.63;;;;;;;-2.43;100.00;98315.50;5040341;28;20505;-64
2024/01/21 09:36:50;;;;;;;8.32;4.45;;;;;;;-2.27;100.00;98324.66;5032271;28;20556;-64
2024/01/21 09:39:18;;;;;;;11.00;6.07;;;;;;;-2.27;100.00;98333.47;5033889;28;20049;-64
2024/01/21 09:41:49;;;;;;;10.98;5.10;;;;;;;-2.19;100.00;98326.56;5040394;28;20037;-63
2024/01/21 09:44:20;;;;;;;12.40;5.78;;;;;;;-1.95;100.00;98342.00;5032440;28;20041;-63
2024/01/21 09:46:51;;;;;;;11.15;5.80;;;;;;;-1.80;100.00;98339.69;5031195;28;20468;-63
2024/01/21 09:49:19;;;;;;;9.18;5.18;;;;;;;-1.53;100.00;98345.09;5042115;28;20136;-63
2024/01/21 09:51:47;;;;;;;11.48;5.80;;;;;;;-1.55;100.00;98341.75;5036939;28;20126;-63
2024/01/21 09:54:14;;;;;;;10.40;5.65;;;;;;;-1.47;100.00;98341.84;5042328;28;20036;-63
2024/01/21 09:56:41;;;;;;;9.38;5.57;;;;;;;-1.46;100.00;98347.00;5031406;28;20508;-63
2024/01/21 09:59:10;;;;;;;13.90;6.25;;;;;;;-1.48;100.00;98348.97;5034028;28;20053;-62
2024/01/21 10:01:38;;;;;;;11.52;6.65;;;;;;;-1.50;100.00;98345.63;5037900;28;20499;-63
2024/01/21 10:04:04;;;;;;;11.57;5.93;;;;;;;-1.51;100.00;98346.59;5037618;28;20123;-63
2024/01/21 10:06:32;;;;;;;13.90;5.63;;;;;;;-1.23;100.00;98351.88;5034048;28;20053;-63
2024/01/21 10:09:12;;;;;;;9.55;6.00;;;;;;;-0.97;100.00;98339.63;5030001;28;20072;-63
2024/01/21 10:11:40;;;;;;;12.52;6.25;;;;;;;-0.93;100.00;98325.03;5036559;28;20041;-63
2024/01/21 10:14:07;;;;;;;10.10;5.60;;;;;;;-0.76;100.00;98315.34;5047088;28;20168;-64
2024/01/21 10:16:33;;;;;;;14.23;6.53;;;;;;;-0.83;100.00;98301.00;5032039;28;20045;-63
2024/01/21 10:19:00;;;;;;;10.73;6.13;;;;;;;-0.81;100.00;98294.53;5034676;28;20045;-62
2024/01/21 10:21:26;;;;;;;14.48;6.25;;;;;;;-0.50;100.00;98317.19;5036153;28;20060;-62
2024/01/21 10:23:53;;;;;;;11.57;6.07;;;;;;;-0.38;100.00;98323.06;5033108;28;20127;-64
2024/01/21 10:26:19;;;;;;;11.40;6.50;;;;;;;-0.41;100.00;98324.22;5035304;28;20055;-63
2024/01/21 10:28:46;;;;;;;12.43;6.82;;;;;;;-0.45;100.00;98327.34;5025912;28;20041;-64
2024/01/21 10:31:13;;;;;;;12.20;7.30;;;;;;;-0.34;100.00;98331.59;5031707;28;20373;-64
2024/01/21 10:33:42;;;;;;;14.63;7.10;;;;;;;-0.34;100.00;98336.91;5038841;28;20045;-63
2024/01/21 10:36:11;;;;;;;10.63;6.43;;;;;;;-0.27;100.00;98333.44;5033138;28;20215;-64
2024/01/21 10:38:48;;;;;;;11.65;6.80;;;;;;;-0.25;100.00;98324.47;5032568;28;20062;-64
2024/01/21 10:41:32;;;;;;;13.00;6.30;;;;;;;-0.22;100.00;98338.28;5030733;28;20049;-63
2024/01/21 10:44:01;;;;;;;11.70;6.60;;;;;;;0.00;100.00;98346.72;5029648;28;20145;-63
2024/01/21 10:46:32;;;;;;;10.50;5.95;;;;;;;0.05;100.00;98336.41;5029060;28;20457;-64
2024/01/21 10:48:59;;;;;;;12.55;6.75;;;;;;;-0.09;100.00;98321.88;5039292;28;20037;-64
2024/01/21 10:51:27;;;;;;;11.23;6.57;;;;;;;-0.14;100.00;98325.00;5035827;28;20083;-64
2024/01/21 10:53:55;;;;;;;14.20;7.30;;;;;;;0.12;100.00;98325.97;5038945;28;20040;-63
2024/01/21 10:56:25;;;;;;;11.38;6.22;;;;;;;0.15;100.00;98332.78;5038307;28;20044;-63
2024/01/21 10:58:52;;;;;;;14.05;7.22;;;;;;;0.14;100.00;98333.78;5034477;28;20056;-63
2024/01/21 11:01:21;;;;;;;9.02;5.68;;;;;;;0.35;100.00;98350.19;5041161;28;20119;-62
2024/01/21 11:03:49;;;;;;;11.73;6.65;;;;;;;0.21;100.00;98369.41;5039735;28;20041;-64
2024/01/21 11:06:16;;;;;;;14.55;7.25;;;;;;;0.18;100.00;98383.91;5036092;28;20056;-63
2024/01/21 11:08:44;;;;;;;13.82;7.25;;;;;;;0.21;100.00;98398.72;5039173;28;20299;-63
2024/01/21 11:11:13;;;;;;;10.93;7.00;;;;;;;0.30;100.00;98383.63;5039815;28;20522;-63
2024/01/21 11:13:50;;;;;;;11.60;6.47;;;;;;;0.39;100.00;98387.97;5048768;28;20048;-63
2024/01/21 11:16:25;;;;;;;13.07;6.30;;;;;;;0.59;100.00;98393.88;5033938;28;20045;-63
2024/01/21 11:18:53;;;;;;;11.00;6.45;;;;;;;0.72;100.00;98413.91;5037665;28;20114;-64
2024/01/21 11:21:20;;;;;;;12.40;7.03;;;;;;;0.76;100.00;98428.56;5035808;28;20393;-64